sensor_id;sensor_type;location;lat;lon;timestamp;pressure;altitude;pressure_sealevel;temperature;humidity
35918;BME280;22011;59.912;30.300;2023-04-06T00:01:19;102814.66;;;4.80;74.93
35918;BME280;22011;59.912;30.300;2023-04-06T00:03:48;102809.31;;;4.81;75.04
35918;BME280;22011;59.912;30.300;2023-04-06T00:06:16;102811.00;;;4.82;75.06
35918;BME280;22011;59.912;30.300;2023-04-06T00:08:44;102802.09;;;4.85;75.23
35918;BME280;22011;59.912;30.300;2023-04-06T00:11:11;102810.00;;;4.85;75.23
35918;BME280;22011;59.912;30.300;2023-04-06T00:13:39;102815.22;;;4.86;74.82
35918;BME280;22011;59.912;30.300;2023-04-06T00:16:07;102804.66;;;4.86;75.25
35918;BME280;22011;59.912;30.300;2023-04-06T00:18:34;102808.22;;;4.85;75.36
35918;BME280;22011;59.912;30.300;2023-04-06T00:21:04;102811.78;;;4.84;75.39
35918;BME280;22011;59.912;30.300;2023-04-06T00:23:32;102808.53;;;4.79;75.75
35918;BME280;22011;59.912;30.300;2023-04-06T00:25:59;102813.03;;;4.77;75.29
35918;BME280;22011;59.912;30.300;2023-04-06T00:28:27;102811.25;;;4.78;75.36
35918;BME280;22011;59.912;30.300;2023-04-06T00:30:56;102803.41;;;4.76;75.29
35918;BME280;22011;59.912;30.300;2023-04-06T00:33:23;102805.13;;;4.77;75.50
35918;BME280;22011;59.912;30.300;2023-04-06T00:35:51;102798.13;;;4.76;75.56
35918;BME280;22011;59.912;30.300;2023-04-06T00:38:21;102803.41;;;4.76;75.79
35918;BME280;22011;59.912;30.300;2023-04-06T00:40:49;102803.25;;;4.79;75.64
35918;BME280;22011;59.912;30.300;2023-04-06T00:43:17;102804.09;;;4.80;75.41
35918;BME280;22011;59.912;30.300;2023-04-06T00:45:45;102792.69;;;4.79;75.46
35918;BME280;22011;59.912;30.300;2023-04-06T00:48:12;102797.13;;;4.79;75.60
35918;BME280;22011;59.912;30.300;2023-04-06T00:50:40;102801.53;;;4.78;75.55
35918;BME280;22011;59.912;30.300;2023-04-06T00:53:07;102799.84;;;4.77;75.50
35918;BME280;22011;59.912;30.300;2023-04-06T00:55:38;102810.25;;;4.80;75.44
35918;BME280;22011;59.912;30.300;2023-04-06T00:58:06;102811.94;;;4.81;75.29
35918;BME280;22011;59.912;30.300;2023-04-06T01:00:44;102818.09;;;4.82;75.38
35918;BME280;22011;59.912;30.300;2023-04-06T01:03:16;102811.94;;;4.81;75.71
35918;BME280;22011;59.912;30.300;2023-04-06T01:05:44;102812.03;;;4.80;75.24
35918;BME280;22011;59.912;30.300;2023-04-06T01:08:19;102810.56;;;4.74;75.19
35918;BME280;22011;59.912;30.300;2023-04-06T01:10:49;102810.41;;;4.77;75.43
35918;BME280;22011;59.912;30.300;2023-04-06T01:13:28;102817.53;;;4.75;75.17
35918;BME280;22011;59.912;30.300;2023-04-06T01:16:03;102822.97;;;4.72;75.28
35918;BME280;22011;59.912;30.300;2023-04-06T01:18:42;102824.06;;;4.68;75.04
35918;BME280;22011;59.912;30.300;2023-04-06T01:21:19;102818.84;;;4.67;75.49
35918;BME280;22011;59.912;30.300;2023-04-06T01:24:07;102817.94;;;4.68;75.64
35918;BME280;22011;59.912;30.300;2023-04-06T01:26:58;102819.88;;;4.64;75.43
35918;BME280;22011;59.912;30.300;2023-04-06T01:29:32;102814.75;;;4.61;75.49
35918;BME280;22011;59.912;30.300;2023-04-06T01:32:03;102823.59;;;4.60;75.76
35918;BME280;22011;59.912;30.300;2023-04-06T01:34:35;102830.72;;;4.58;75.69
35918;BME280;22011;59.912;30.300;2023-04-06T01:37:05;102828.88;;;4.60;75.65
35918;BME280;22011;59.912;30.300;2023-04-06T01:39:34;102831.34;;;4.63;75.86
35918;BME280;22011;59.912;30.300;2023-04-06T01:42:04;102830.56;;;4.61;75.58
35918;BME280;22011;59.912;30.300;2023-04-06T01:44:34;102832.22;;;4.64;75.30
35918;BME280;22011;59.912;30.300;2023-04-06T01:47:12;102832.13;;;4.65;75.34
35918;BME280;22011;59.912;30.300;2023-04-06T01:49:40;102827.94;;;4.61;75.29
35918;BME280;22011;59.912;30.300;2023-04-06T01:52:08;102832.38;;;4.60;75.11
35918;BME280;22011;59.912;30.300;2023-04-06T01:54:41;102832.50;;;4.57;75.56
35918;BME280;22011;59.912;30.300;2023-04-06T01:57:15;102830.09;;;4.53;75.38
35918;BME280;22011;59.912;30.300;2023-04-06T01:59:47;102831.97;;;4.51;75.69
35918;BME280;22011;59.912;30.300;2023-04-06T02:02:21;102838.16;;;4.50;75.87
35918;BME280;22011;59.912;30.300;2023-04-06T02:04:59;102833.81;;;4.49;75.77
35918;BME280;22011;59.912;30.300;2023-04-06T02:07:27;102834.75;;;4.48;76.02
35918;BME280;22011;59.912;30.300;2023-04-06T02:09:57;102831.88;;;4.52;76.07
35918;BME280;22011;59.912;30.300;2023-04-06T02:12:33;102834.59;;;4.51;75.61
35918;BME280;22011;59.912;30.300;2023-04-06T02:15:03;102830.19;;;4.51;75.83
35918;BME280;22011;59.912;30.300;2023-04-06T02:17:31;102832.88;;;4.50;75.61
35918;BME280;22011;59.912;30.300;2023-04-06T02:19:58;102826.13;;;4.44;75.49
35918;BME280;22011;59.912;30.300;2023-04-06T02:22:26;102832.41;;;4.42;75.59
35918;BME280;22011;59.912;30.300;2023-04-06T02:24:54;102838.47;;;4.44;75.91
35918;BME280;22011;59.912;30.300;2023-04-06T02:27:24;102834.03;;;4.44;76.15
35918;BME280;22011;59.912;30.300;2023-04-06T02:29:51;102828.06;;;4.41;75.88
35918;BME280;22011;59.912;30.300;2023-04-06T02:32:20;102840.63;;;4.36;76.16
35918;BME280;22011;59.912;30.300;2023-04-06T02:34:48;102834.56;;;4.34;76.14
35918;BME280;22011;59.912;30.300;2023-04-06T02:37:18;102837.94;;;4.54;76.90
35918;BME280;22011;59.912;30.300;2023-04-06T02:39:46;102847.53;;;4.38;76.14
35918;BME280;22011;59.912;30.300;2023-04-06T02:42:14;102844.03;;;4.38;75.99
35918;BME280;22011;59.912;30.300;2023-04-06T02:44:44;102853.75;;;4.37;76.19
35918;BME280;22011;59.912;30.300;2023-04-06T02:47:12;102851.19;;;4.36;76.62
35918;BME280;22011;59.912;30.300;2023-04-06T02:49:44;102853.13;;;4.32;76.08
35918;BME280;22011;59.912;30.300;2023-04-06T02:52:12;102856.91;;;4.26;76.22
35918;BME280;22011;59.912;30.300;2023-04-06T02:54:40;102859.53;;;4.26;76.56
35918;BME280;22011;59.912;30.300;2023-04-06T02:57:07;102868.47;;;4.24;76.64
35918;BME280;22011;59.912;30.300;2023-04-06T02:59:42;102857.84;;;4.25;76.58
35918;BME280;22011;59.912;30.300;2023-04-06T03:02:27;102859.53;;;4.26;76.88
35918;BME280;22011;59.912;30.300;2023-04-06T03:05:03;102869.31;;;4.24;76.80
35918;BME280;22011;59.912;30.300;2023-04-06T03:07:36;102857.06;;;4.23;76.50
35918;BME280;22011;59.912;30.300;2023-04-06T03:10:05;102859.75;;;4.22;76.36
35918;BME280;22011;59.912;30.300;2023-04-06T03:12:33;102863.25;;;4.22;76.95
35918;BME280;22011;59.912;30.300;2023-04-06T03:15:36;102863.19;;;4.24;76.47
35918;BME280;22011;59.912;30.300;2023-04-06T03:18:14;102862.19;;;4.26;76.63
35918;BME280;22011;59.912;30.300;2023-04-06T03:20:47;102868.38;;;4.25;76.48
35918;BME280;22011;59.912;30.300;2023-04-06T03:23:16;102868.53;;;4.22;76.17
35918;BME280;22011;59.912;30.300;2023-04-06T03:25:47;102869.59;;;4.18;76.63
35918;BME280;22011;59.912;30.300;2023-04-06T03:28:18;102866.97;;;4.18;76.78
35918;BME280;22011;59.912;30.300;2023-04-06T03:30:56;102864.31;;;4.18;76.74
35918;BME280;22011;59.912;30.300;2023-04-06T03:33:41;102868.75;;;4.18;76.91
35918;BME280;22011;59.912;30.300;2023-04-06T03:36:13;102864.41;;;4.17;76.81
35918;BME280;22011;59.912;30.300;2023-04-06T03:38:43;102873.97;;;4.19;76.89
35918;BME280;22011;59.912;30.300;2023-04-06T03:41:13;102869.59;;;4.18;76.80
35918;BME280;22011;59.912;30.300;2023-04-06T03:43:45;102871.38;;;4.18;76.90
35918;BME280;22011;59.912;30.300;2023-04-06T03:46:13;102876.66;;;4.18;76.42
35918;BME280;22011;59.912;30.300;2023-04-06T03:48:42;102879.47;;;4.15;76.73
35918;BME280;22011;59.912;30.300;2023-04-06T03:51:10;102878.97;;;4.07;76.81
35918;BME280;22011;59.912;30.300;2023-04-06T03:53:38;102879.84;;;4.07;77.06
35918;BME280;22011;59.912;30.300;2023-04-06T03:56:06;102888.81;;;4.03;76.93
35918;BME280;22011;59.912;30.300;2023-04-06T03:58:33;102888.03;;;4.01;77.01
35918;BME280;22011;59.912;30.300;2023-04-06T04:01:01;102887.97;;;4.03;77.22
35918;BME280;22011;59.912;30.300;2023-04-06T04:03:29;102886.91;;;4.07;77.36
35918;BME280;22011;59.912;30.300;2023-04-06T04:05:58;102890.25;;;4.10;77.22
35918;BME280;22011;59.912;30.300;2023-04-06T04:08:26;102886.75;;;4.10;77.00
35918;BME280;22011;59.912;30.300;2023-04-06T04:10:53;102886.69;;;4.11;77.31
35918;BME280;22011;59.912;30.300;2023-04-06T04:13:22;102890.09;;;4.13;77.12
35918;BME280;22011;59.912;30.300;2023-04-06T04:15:51;102897.84;;;4.16;77.41
35918;BME280;22011;59.912;30.300;2023-04-06T04:18:19;102895.31;;;4.15;76.91
35918;BME280;22011;59.912;30.300;2023-04-06T04:20:46;102895.38;;;4.13;76.85
35918;BME280;22011;59.912;30.300;2023-04-06T04:23:16;102904.94;;;4.16;77.03
35918;BME280;22011;59.912;30.300;2023-04-06T04:25:43;102909.34;;;4.15;76.75
35918;BME280;22011;59.912;30.300;2023-04-06T04:28:11;102902.50;;;4.11;76.79
35918;BME280;22011;59.912;30.300;2023-04-06T04:30:41;102912.22;;;4.11;76.96
35918;BME280;22011;59.912;30.300;2023-04-06T04:33:11;102906.00;;;4.12;77.11
35918;BME280;22011;59.912;30.300;2023-04-06T04:35:38;102914.00;;;4.10;77.40
35918;BME280;22011;59.912;30.300;2023-04-06T04:38:07;102914.00;;;4.10;77.27
35918;BME280;22011;59.912;30.300;2023-04-06T04:40:40;102920.06;;;4.12;76.91
35918;BME280;22011;59.912;30.300;2023-04-06T04:43:09;102907.16;;;4.06;77.22
35918;BME280;22011;59.912;30.300;2023-04-06T04:45:39;102914.13;;;4.07;77.26
35918;BME280;22011;59.912;30.300;2023-04-06T04:48:18;102912.13;;;4.12;77.24
35918;BME280;22011;59.912;30.300;2023-04-06T04:50:58;102911.50;;;4.07;77.26
35918;BME280;22011;59.912;30.300;2023-04-06T04:53:31;102914.13;;;4.07;77.20
35918;BME280;22011;59.912;30.300;2023-04-06T04:56:09;102913.13;;;4.10;77.31
35918;BME280;22011;59.912;30.300;2023-04-06T04:58:37;102921.25;;;4.05;76.71
35918;BME280;22011;59.912;30.300;2023-04-06T05:01:04;102913.56;;;4.01;76.74
35918;BME280;22011;59.912;30.300;2023-04-06T05:03:32;102924.38;;;3.94;77.12
35918;BME280;22011;59.912;30.300;2023-04-06T05:06:04;102920.97;;;3.92;77.24
35918;BME280;22011;59.912;30.300;2023-04-06T05:08:35;102917.59;;;3.89;77.17
35918;BME280;22011;59.912;30.300;2023-04-06T05:11:03;102927.31;;;3.88;77.06
35918;BME280;22011;59.912;30.300;2023-04-06T05:13:37;102926.38;;;3.89;77.62
35918;BME280;22011;59.912;30.300;2023-04-06T05:16:13;102928.94;;;3.91;77.29
35918;BME280;22011;59.912;30.300;2023-04-06T05:18:41;102925.16;;;3.97;77.13
35918;BME280;22011;59.912;30.300;2023-04-06T05:21:10;102922.41;;;4.00;76.70
35918;BME280;22011;59.912;30.300;2023-04-06T05:23:49;102924.97;;;4.01;76.87
35918;BME280;22011;59.912;30.300;2023-04-06T05:26:18;102919.53;;;4.04;76.33
35918;BME280;22011;59.912;30.300;2023-04-06T05:28:47;102929.09;;;4.07;76.25
35918;BME280;22011;59.912;30.300;2023-04-06T05:31:17;102929.09;;;4.07;76.41
35918;BME280;22011;59.912;30.300;2023-04-06T05:33:48;102926.47;;;4.07;76.36
35918;BME280;22011;59.912;30.300;2023-04-06T05:36:24;102925.75;;;4.03;76.78
35918;BME280;22011;59.912;30.300;2023-04-06T05:38:52;102929.31;;;4.02;76.92
35918;BME280;22011;59.912;30.300;2023-04-06T05:41:47;102931.09;;;4.02;76.75
35918;BME280;22011;59.912;30.300;2023-04-06T05:44:20;102929.97;;;4.07;76.77
35918;BME280;22011;59.912;30.300;2023-04-06T05:46:58;102926.41;;;4.08;76.65
35918;BME280;22011;59.912;30.300;2023-04-06T05:49:27;102924.69;;;4.07;76.66
35918;BME280;22011;59.912;30.300;2023-04-06T05:51:55;102923.97;;;4.04;76.96
35918;BME280;22011;59.912;30.300;2023-04-06T05:54:22;102933.72;;;4.02;76.69
35918;BME280;22011;59.912;30.300;2023-04-06T05:56:54;102931.09;;;4.02;76.47
35918;BME280;22011;59.912;30.300;2023-04-06T05:59:23;102924.69;;;4.07;76.39
35918;BME280;22011;59.912;30.300;2023-04-06T06:01:52;102922.13;;;4.06;76.20
35918;BME280;22011;59.912;30.300;2023-04-06T06:04:21;102929.97;;;4.07;77.13
35918;BME280;22011;59.912;30.300;2023-04-06T06:06:52;102933.38;;;4.09;76.58
35918;BME280;22011;59.912;30.300;2023-04-06T06:09:28;102935.88;;;4.12;76.54
35918;BME280;22011;59.912;30.300;2023-04-06T06:12:19;102934.16;;;4.11;76.06
35918;BME280;22011;59.912;30.300;2023-04-06T06:14:49;102939.38;;;4.13;75.80
35918;BME280;22011;59.912;30.300;2023-04-06T06:17:18;102933.25;;;4.12;75.83
35918;BME280;22011;59.912;30.300;2023-04-06T06:19:47;102944.78;;;4.10;76.15
35918;BME280;22011;59.912;30.300;2023-04-06T06:22:15;102944.88;;;4.08;76.28
35918;BME280;22011;59.912;30.300;2023-04-06T06:24:45;102944.47;;;4.35;76.81
35918;BME280;22011;59.912;30.300;2023-04-06T06:27:15;102943.94;;;4.09;75.13
35918;BME280;22011;59.912;30.300;2023-04-06T06:29:43;102945.13;;;4.02;75.57
35918;BME280;22011;59.912;30.300;2023-04-06T06:32:12;102946.91;;;4.02;75.81
35918;BME280;22011;59.912;30.300;2023-04-06T06:34:41;102955.03;;;3.97;75.99
35918;BME280;22011;59.912;30.300;2023-04-06T06:37:09;102948.78;;;4.00;76.20
35918;BME280;22011;59.912;30.300;2023-04-06T06:39:38;102949.56;;;4.02;75.86
35918;BME280;22011;59.912;30.300;2023-04-06T06:42:05;102945.94;;;4.04;75.75
35918;BME280;22011;59.912;30.300;2023-04-06T06:44:45;102945.94;;;4.04;76.01
35918;BME280;22011;59.912;30.300;2023-04-06T06:47:14;102952.00;;;4.06;75.98
35918;BME280;22011;59.912;30.300;2023-04-06T06:49:44;102944.06;;;4.06;76.10
35918;BME280;22011;59.912;30.300;2023-04-06T06:52:11;102951.84;;;4.09;76.04
35918;BME280;22011;59.912;30.300;2023-04-06T06:54:39;102957.00;;;4.12;75.28
35918;BME280;22011;59.912;30.300;2023-04-06T06:57:06;102950.78;;;4.13;75.26
35918;BME280;22011;59.912;30.300;2023-04-06T06:59:34;102957.69;;;4.16;75.12
35918;BME280;22011;59.912;30.300;2023-04-06T07:02:02;102959.56;;;4.14;75.16
35918;BME280;22011;59.912;30.300;2023-04-06T07:04:31;102957.78;;;4.14;75.78
35918;BME280;22011;59.912;30.300;2023-04-06T07:06:59;102954.34;;;4.12;75.63
35918;BME280;22011;59.912;30.300;2023-04-06T07:09:27;102963.19;;;4.11;75.42
35918;BME280;22011;59.912;30.300;2023-04-06T07:11:55;102969.53;;;4.07;75.42
35918;BME280;22011;59.912;30.300;2023-04-06T07:14:23;102965.03;;;4.09;75.66
35918;BME280;22011;59.912;30.300;2023-04-06T07:16:51;102962.25;;;4.12;75.51
35918;BME280;22011;59.912;30.300;2023-04-06T07:19:19;102962.88;;;4.17;75.24
35918;BME280;22011;59.912;30.300;2023-04-06T07:21:48;102953.63;;;4.27;75.49
35918;BME280;22011;59.912;30.300;2023-04-06T07:24:16;102957.03;;;4.30;75.13
35918;BME280;22011;59.912;30.300;2023-04-06T07:26:44;102956.97;;;4.31;74.93
35918;BME280;22011;59.912;30.300;2023-04-06T07:29:11;102953.31;;;4.34;74.76
35918;BME280;22011;59.912;30.300;2023-04-06T07:31:39;102960.31;;;4.35;74.77
35918;BME280;22011;59.912;30.300;2023-04-06T07:34:07;102958.41;;;4.38;74.88
35918;BME280;22011;59.912;30.300;2023-04-06T07:36:34;102959.03;;;4.43;74.38
35918;BME280;22011;59.912;30.300;2023-04-06T07:39:03;102966.75;;;4.48;74.60
35918;BME280;22011;59.912;30.300;2023-04-06T07:41:31;102966.03;;;4.44;74.56
35918;BME280;22011;59.912;30.300;2023-04-06T07:44:00;102975.50;;;4.48;75.17
35918;BME280;22011;59.912;30.300;2023-04-06T07:46:28;102969.44;;;4.46;74.51
35918;BME280;22011;59.912;30.300;2023-04-06T07:48:56;102969.38;;;4.48;74.27
35918;BME280;22011;59.912;30.300;2023-04-06T07:51:27;102972.66;;;4.53;73.96
35918;BME280;22011;59.912;30.300;2023-04-06T07:53:55;102969.81;;;4.57;74.11
35918;BME280;22011;59.912;30.300;2023-04-06T07:56:24;102971.22;;;4.65;73.96
35918;BME280;22011;59.912;30.300;2023-04-06T07:58:52;102968.66;;;4.63;74.03
35918;BME280;22011;59.912;30.300;2023-04-06T08:01:21;102970.38;;;4.64;73.88
35918;BME280;22011;59.912;30.300;2023-04-06T08:03:49;102973.16;;;4.61;73.91
35918;BME280;22011;59.912;30.300;2023-04-06T08:06:17;102973.72;;;4.68;73.88
35918;BME280;22011;59.912;30.300;2023-04-06T08:08:44;102977.13;;;4.70;73.53
35918;BME280;22011;59.912;30.300;2023-04-06T08:11:12;102978.78;;;4.72;73.38
35918;BME280;22011;59.912;30.300;2023-04-06T08:13:41;102988.28;;;4.76;73.19
35918;BME280;22011;59.912;30.300;2023-04-06T08:16:08;102976.91;;;4.74;72.83
35918;BME280;22011;59.912;30.300;2023-04-06T08:18:36;102982.84;;;4.79;72.78
35918;BME280;22011;59.912;30.300;2023-04-06T08:21:04;102988.13;;;4.79;72.63
35918;BME280;22011;59.912;30.300;2023-04-06T08:23:31;102987.81;;;4.85;72.63
35918;BME280;22011;59.912;30.300;2023-04-06T08:25:59;102984.81;;;4.93;72.31
35918;BME280;22011;59.912;30.300;2023-04-06T08:28:26;102986.53;;;4.94;72.34
35918;BME280;22011;59.912;30.300;2023-04-06T08:30:55;102990.66;;;5.00;72.42
35918;BME280;22011;59.912;30.300;2023-04-06T08:33:23;102993.22;;;5.01;72.32
35918;BME280;22011;59.912;30.300;2023-04-06T08:35:51;102991.22;;;5.06;71.65
35918;BME280;22011;59.912;30.300;2023-04-06T08:38:18;102993.00;;;5.06;71.91
35918;BME280;22011;59.912;30.300;2023-04-06T08:40:46;102992.22;;;5.04;71.53
35918;BME280;22011;59.912;30.300;2023-04-06T08:43:17;102994.00;;;5.03;72.34
35918;BME280;22011;59.912;30.300;2023-04-06T08:45:47;103000.53;;;4.96;72.82
35918;BME280;22011;59.912;30.300;2023-04-06T08:48:16;103002.22;;;4.97;72.74
35918;BME280;22011;59.912;30.300;2023-04-06T08:50:44;102995.63;;;5.23;73.46
35918;BME280;22011;59.912;30.300;2023-04-06T08:53:12;103000.28;;;5.01;71.55
35918;BME280;22011;59.912;30.300;2023-04-06T08:55:42;103001.78;;;5.06;72.20
35918;BME280;22011;59.912;30.300;2023-04-06T08:58:10;102999.38;;;5.02;71.90
35918;BME280;22011;59.912;30.300;2023-04-06T09:00:38;103000.22;;;5.02;72.37
35918;BME280;22011;59.912;30.300;2023-04-06T09:03:07;103001.88;;;5.05;72.48
35918;BME280;22011;59.912;30.300;2023-04-06T09:05:36;102998.06;;;5.10;72.23
35918;BME280;22011;59.912;30.300;2023-04-06T09:08:05;103007.56;;;5.14;71.61
35918;BME280;22011;59.912;30.300;2023-04-06T09:10:34;103003.56;;;5.23;71.64
35918;BME280;22011;59.912;30.300;2023-04-06T09:13:05;103006.84;;;5.28;71.21
35918;BME280;22011;59.912;30.300;2023-04-06T09:15:32;103001.78;;;5.23;71.31
35918;BME280;22011;59.912;30.300;2023-04-06T09:18:00;103002.34;;;5.30;71.19
35918;BME280;22011;59.912;30.300;2023-04-06T09:20:28;103003.97;;;5.33;71.07
35918;BME280;22011;59.912;30.300;2023-04-06T09:22:57;103005.69;;;5.34;71.17
35918;BME280;22011;59.912;30.300;2023-04-06T09:25:25;103000.78;;;5.26;71.72
35918;BME280;22011;59.912;30.300;2023-04-06T09:28:00;103001.25;;;5.34;71.96
35918;BME280;22011;59.912;30.300;2023-04-06T09:30:28;103001.69;;;5.25;71.09
35918;BME280;22011;59.912;30.300;2023-04-06T09:32:57;103003.41;;;5.26;71.68
35918;BME280;22011;59.912;30.300;2023-04-06T09:35:25;103003.41;;;5.26;71.35
35918;BME280;22011;59.912;30.300;2023-04-06T09:37:56;103001.81;;;5.58;72.42
35918;BME280;22011;59.912;30.300;2023-04-06T09:40:24;102993.94;;;5.39;70.86
35918;BME280;22011;59.912;30.300;2023-04-06T09:42:51;103000.94;;;5.40;70.80
35918;BME280;22011;59.912;30.300;2023-04-06T09:45:20;103006.78;;;5.47;70.38
35918;BME280;22011;59.912;30.300;2023-04-06T09:47:48;102996.03;;;5.50;70.13
35918;BME280;22011;59.912;30.300;2023-04-06T09:50:19;102999.16;;;5.58;70.38
35918;BME280;22011;59.912;30.300;2023-04-06T09:52:48;103003.50;;;5.59;70.07
35918;BME280;22011;59.912;30.300;2023-04-06T09:55:23;102997.59;;;5.71;71.08
35918;BME280;22011;59.912;30.300;2023-04-06T09:57:58;103009.09;;;5.70;70.00
35918;BME280;22011;59.912;30.300;2023-04-06T10:00:31;103007.41;;;5.69;69.88
35918;BME280;22011;59.912;30.300;2023-04-06T10:03:06;103004.19;;;5.80;69.93
35918;BME280;22011;59.912;30.300;2023-04-06T10:05:41;103003.66;;;5.73;70.14
35918;BME280;22011;59.912;30.300;2023-04-06T10:08:10;103006.22;;;5.75;70.55
35918;BME280;22011;59.912;30.300;2023-04-06T10:10:39;102995.09;;;5.85;69.63
35918;BME280;22011;59.912;30.300;2023-04-06T10:13:07;103010.75;;;5.90;69.10
35918;BME280;22011;59.912;30.300;2023-04-06T10:15:38;103003.13;;;6.01;68.56
35918;BME280;22011;59.912;30.300;2023-04-06T10:18:06;103005.16;;;5.96;68.74
35918;BME280;22011;59.912;30.300;2023-04-06T10:20:39;102998.66;;;6.02;69.96
35918;BME280;22011;59.912;30.300;2023-04-06T10:23:12;103006.84;;;5.97;68.93
35918;BME280;22011;59.912;30.300;2023-04-06T10:25:53;103006.22;;;6.09;69.43
35918;BME280;22011;59.912;30.300;2023-04-06T10:28:22;103002.19;;;6.02;68.09
35918;BME280;22011;59.912;30.300;2023-04-06T10:30:56;103009.22;;;6.19;68.73
35918;BME280;22011;59.912;30.300;2023-04-06T10:33:24;103005.88;;;6.15;68.17
35918;BME280;22011;59.912;30.300;2023-04-06T10:35:52;103007.44;;;6.19;67.70
35918;BME280;22011;59.912;30.300;2023-04-06T10:38:20;103009.72;;;6.26;68.07
35918;BME280;22011;59.912;30.300;2023-04-06T10:40:48;102996.16;;;6.47;67.60
35918;BME280;22011;59.912;30.300;2023-04-06T10:43:20;103005.06;;;6.62;66.78
35918;BME280;22011;59.912;30.300;2023-04-06T10:45:55;103012.06;;;6.63;66.86
35918;BME280;22011;59.912;30.300;2023-04-06T10:48:23;103005.56;;;6.53;66.68
35918;BME280;22011;59.912;30.300;2023-04-06T10:50:52;103014.47;;;6.52;66.63
35918;BME280;22011;59.912;30.300;2023-04-06T10:53:21;103003.69;;;6.55;66.47
35918;BME280;22011;59.912;30.300;2023-04-06T10:55:50;103004.97;;;6.48;67.31
35918;BME280;22011;59.912;30.300;2023-04-06T10:58:20;103007.53;;;6.49;67.96
35918;BME280;22011;59.912;30.300;2023-04-06T11:00:48;102997.22;;;6.61;67.12
35918;BME280;22011;59.912;30.300;2023-04-06T11:03:17;103002.06;;;6.68;66.97
35918;BME280;22011;59.912;30.300;2023-04-06T11:05:45;102995.84;;;6.69;66.39
35918;BME280;22011;59.912;30.300;2023-04-06T11:08:22;102998.13;;;6.91;66.83
35918;BME280;22011;59.912;30.300;2023-04-06T11:10:50;102991.81;;;6.94;65.60
35918;BME280;22011;59.912;30.300;2023-04-06T11:13:17;102985.91;;;7.04;65.16
35918;BME280;22011;59.912;30.300;2023-04-06T11:15:46;102985.47;;;7.12;64.76
35918;BME280;22011;59.912;30.300;2023-04-06T11:18:17;102983.31;;;7.18;64.94
35918;BME280;22011;59.912;30.300;2023-04-06T11:20:47;102982.88;;;7.26;64.67
35918;BME280;22011;59.912;30.300;2023-04-06T11:23:22;102980.31;;;7.39;64.54
35918;BME280;22011;59.912;30.300;2023-04-06T11:25:51;102978.59;;;7.38;63.87
35918;BME280;22011;59.912;30.300;2023-04-06T11:28:19;102976.09;;;7.50;63.87
35918;BME280;22011;59.912;30.300;2023-04-06T11:30:48;102972.69;;;7.63;63.43
35918;BME280;22011;59.912;30.300;2023-04-06T11:33:20;102971.09;;;7.74;63.19
35918;BME280;22011;59.912;30.300;2023-04-06T11:35:48;102967.78;;;7.71;63.42
35918;BME280;22011;59.912;30.300;2023-04-06T11:38:18;102965.34;;;7.82;62.92
35918;BME280;22011;59.912;30.300;2023-04-06T11:40:46;102959.47;;;7.91;62.49
35918;BME280;22011;59.912;30.300;2023-04-06T11:43:13;102958.91;;;8.00;62.57
35918;BME280;22011;59.912;30.300;2023-04-06T11:45:42;102957.56;;;8.07;62.13
35918;BME280;22011;59.912;30.300;2023-04-06T11:48:19;102960.03;;;8.25;62.45
35918;BME280;22011;59.912;30.300;2023-04-06T11:50:55;102950.91;;;8.29;62.17
35918;BME280;22011;59.912;30.300;2023-04-06T11:53:23;102948.66;;;8.23;61.88
35918;BME280;22011;59.912;30.300;2023-04-06T11:55:51;102953.00;;;8.24;62.36
35918;BME280;22011;59.912;30.300;2023-04-06T11:58:18;102943.91;;;8.28;61.52
35918;BME280;22011;59.912;30.300;2023-04-06T12:00:46;102947.13;;;8.33;61.21
35918;BME280;22011;59.912;30.300;2023-04-06T12:03:14;102946.34;;;8.45;60.89
35918;BME280;22011;59.912;30.300;2023-04-06T12:05:43;102949.72;;;8.61;60.96
35918;BME280;22011;59.912;30.300;2023-04-06T12:08:11;102946.41;;;8.58;60.60
35918;BME280;22011;59.912;30.300;2023-04-06T12:10:39;102939.44;;;8.69;60.47
35918;BME280;22011;59.912;30.300;2023-04-06T12:13:06;102943.81;;;8.70;60.44
35918;BME280;22011;59.912;30.300;2023-04-06T12:15:34;102939.88;;;8.76;60.41
35918;BME280;22011;59.912;30.300;2023-04-06T12:18:01;102943.09;;;8.81;59.90
35918;BME280;22011;59.912;30.300;2023-04-06T12:20:29;102943.69;;;8.72;60.22
35918;BME280;22011;59.912;30.300;2023-04-06T12:22:58;102937.53;;;8.71;60.58
35918;BME280;22011;59.912;30.300;2023-04-06T12:25:26;102932.63;;;8.65;59.78
35918;BME280;22011;59.912;30.300;2023-04-06T12:27:54;102941.78;;;8.74;59.16
35918;BME280;22011;59.912;30.300;2023-04-06T12:30:22;102930.09;;;8.76;59.14
35918;BME280;22011;59.912;30.300;2023-04-06T12:32:50;102930.75;;;8.80;59.60
35918;BME280;22011;59.912;30.300;2023-04-06T12:35:18;102931.63;;;8.80;59.24
35918;BME280;22011;59.912;30.300;2023-04-06T12:37:47;102933.47;;;8.93;58.56
35918;BME280;22011;59.912;30.300;2023-04-06T12:40:16;102931.25;;;8.99;58.06
35918;BME280;22011;59.912;30.300;2023-04-06T12:42:43;102926.38;;;9.06;57.38
35918;BME280;22011;59.912;30.300;2023-04-06T12:45:12;102933.81;;;9.01;57.88
35918;BME280;22011;59.912;30.300;2023-04-06T12:47:39;102925.19;;;8.97;57.63
35918;BME280;22011;59.912;30.300;2023-04-06T12:50:08;102918.16;;;8.96;57.96
35918;BME280;22011;59.912;30.300;2023-04-06T12:52:35;102912.44;;;9.02;57.12
35918;BME280;22011;59.912;30.300;2023-04-06T12:55:04;102913.63;;;9.11;56.08
35918;BME280;22011;59.912;30.300;2023-04-06T12:57:33;102912.38;;;9.16;56.63
35918;BME280;22011;59.912;30.300;2023-04-06T13:00:01;102909.41;;;9.21;55.63
35918;BME280;22011;59.912;30.300;2023-04-06T13:02:30;102913.84;;;9.21;55.81
35918;BME280;22011;59.912;30.300;2023-04-06T13:04:57;102903.88;;;9.24;54.42